Time;durP1;ratioP1;P1;durP2;ratioP2;P2;SDS_P1;SDS_P2;PMS_P1;PMS_P2;Temp;Humidity;BMP_temperature;BMP_pressure;BME280_temperature;BME280_humidity;BME280_pressure;Samples;Min_cycle;Max_cycle;Signal;HPM_P1;HPM_P2
2021/11/10 00:00:00;;;;;;;20.00;15.30;;;;;;;;;;2080433;28;20180;-52
2021/11/10 00:01:00;;;;;;;20.80;16.23;;;;;;;;;;2075772;28;20584;-53
2021/11/10 00:02:00;;;;;;;25.73;16.73;;;;;;;;;;2078389;28;20268;-52
2021/11/10 00:03:01;;;;;;;21.30;15.87;;;;;;;;;;2080219;28;20207;-52
2021/11/10 00:04:01;;;;;;;26.67;16.90;;;;;;;;;;2081112;28;20246;-53
2021/11/10 00:05:02;;;;;;;22.83;17.50;;;;;;;;;;2081838;28;20206;-54
2021/11/10 00:06:03;;;;;;;23.80;16.13;;;;;;;;;;2081664;28;20569;-55
2021/11/10 00:07:03;;;;;;;21.17;16.03;;;;;;;;;;2081622;28;20498;-56
2021/11/10 00:08:04;;;;;;;21.67;16.03;;;;;;;;;;2081585;28;20184;-52
2021/11/10 00:09:05;;;;;;;20.10;15.10;;;;;;;;;;2074644;28;20219;-52
2021/11/10 00:10:05;;;;;;;22.90;15.90;;;;;;;;;;2075996;28;20278;-53
2021/11/10 00:11:05;;;;;;;21.10;15.37;;;;;;;;;;2080608;28;20194;-52
2021/11/10 00:12:06;;;;;;;20.50;15.73;;;;;;;;;;2081531;28;20279;-54
2021/11/10 00:13:18;;;;;;;19.83;15.83;;;;;;;;;;2081765;28;20244;-52
2021/11/10 00:14:19;;;;;;;18.83;14.83;;;;;;;;;;2081212;28;20192;-53
2021/11/10 00:15:19;;;;;;;21.90;15.97;;;;;;;;;;2079352;28;20176;-55
2021/11/10 00:16:19;;;;;;;22.07;15.77;;;;;;;;;;2079312;28;20179;-52
2021/11/10 00:17:20;;;;;;;18.30;14.27;;;;;;;;;;2080666;28;20199;-51
2021/11/10 00:18:20;;;;;;;18.30;14.80;;;;;;;;;;2081101;28;20168;-53
2021/11/10 00:19:21;;;;;;;18.27;15.37;;;;;;;;;;2081720;28;20241;-53
2021/11/10 00:20:21;;;;;;;19.20;14.97;;;;;;;;;;2082003;28;20172;-56
2021/11/10 00:21:23;;;;;;;21.60;15.07;;;;;;;;;;2081757;28;20263;-53
2021/11/10 00:22:25;;;;;;;19.50;14.70;;;;;;;;;;2081022;28;20180;-53
2021/11/10 00:23:25;;;;;;;23.37;15.47;;;;;;;;;;2081540;28;20176;-52
2021/11/10 00:24:25;;;;;;;21.30;14.83;;;;;;;;;;2075445;28;20715;-52
2021/11/10 00:25:25;;;;;;;23.40;14.93;;;;;;;;;;2073817;28;20550;-52
2021/11/10 00:26:26;;;;;;;19.27;13.87;;;;;;;;;;2073622;28;20180;-55
2021/11/10 00:27:26;;;;;;;24.67;14.87;;;;;;;;;;2073072;28;20185;-56
2021/11/10 00:28:28;;;;;;;21.80;15.60;;;;;;;;;;2079731;28;20191;-53
2021/11/10 00:29:28;;;;;;;22.00;15.33;;;;;;;;;;2081260;28;20195;-55
2021/11/10 00:30:29;;;;;;;17.33;14.70;;;;;;;;;;2080803;28;20273;-53
2021/11/10 00:31:29;;;;;;;21.47;15.07;;;;;;;;;;2081486;28;20172;-53
2021/11/10 00:32:29;;;;;;;21.63;14.90;;;;;;;;;;2081743;28;20586;-54
2021/11/10 00:33:30;;;;;;;16.80;14.73;;;;;;;;;;2081742;28;20497;-55
2021/11/10 00:34:30;;;;;;;19.57;15.57;;;;;;;;;;2081513;28;20172;-56
2021/11/10 00:35:30;;;;;;;21.23;14.93;;;;;;;;;;2081702;28;20704;-51
2021/11/10 00:36:31;;;;;;;20.90;14.87;;;;;;;;;;2081836;28;20556;-54
2021/11/10 00:37:31;;;;;;;18.37;14.73;;;;;;;;;;2081469;28;20168;-53
2021/11/10 00:38:31;;;;;;;22.03;14.37;;;;;;;;;;2073165;28;20181;-53
2021/11/10 00:39:31;;;;;;;19.33;14.20;;;;;;;;;;2081254;28;20196;-54
2021/11/10 00:40:32;;;;;;;18.10;14.77;;;;;;;;;;2075137;28;20817;-53
2021/11/10 00:41:32;;;;;;;18.83;14.40;;;;;;;;;;2073160;28;20220;-53
2021/11/10 00:42:32;;;;;;;18.73;13.77;;;;;;;;;;2081273;28;20196;-56
2021/11/10 00:43:33;;;;;;;16.63;13.93;;;;;;;;;;2082345;28;20652;-55
2021/11/10 00:44:33;;;;;;;20.43;14.03;;;;;;;;;;2081566;28;20250;-54
2021/11/10 00:45:34;;;;;;;17.70;14.63;;;;;;;;;;2081856;28;20214;-53
2021/11/10 00:46:34;;;;;;;20.10;14.93;;;;;;;;;;2081123;28;20192;-52
2021/11/10 00:47:34;;;;;;;17.10;13.63;;;;;;;;;;2069308;28;20186;-53
2021/11/10 00:48:35;;;;;;;22.00;14.50;;;;;;;;;;2078840;28;20211;-54
2021/11/10 00:49:37;;;;;;;19.30;15.00;;;;;;;;;;2080201;28;20548;-53
2021/11/10 00:50:38;;;;;;;19.90;14.20;;;;;;;;;;2071215;28;20176;-53
2021/11/10 00:51:39;;;;;;;19.80;14.03;;;;;;;;;;2070771;28;20276;-55
2021/11/10 00:52:39;;;;;;;17.83;13.97;;;;;;;;;;2062187;28;20208;-52
2021/11/10 00:53:39;;;;;;;18.70;13.50;;;;;;;;;;2070067;28;20195;-55
2021/11/10 00:54:40;;;;;;;20.27;15.43;;;;;;;;;;2079856;28;20160;-53
2021/11/10 00:55:41;;;;;;;20.07;14.13;;;;;;;;;;2080888;28;20195;-55
2021/11/10 00:56:42;;;;;;;20.33;14.40;;;;;;;;;;2080360;28;20183;-55
2021/11/10 00:57:42;;;;;;;17.87;14.30;;;;;;;;;;2072537;28;20243;-53
2021/11/10 00:58:42;;;;;;;17.97;14.03;;;;;;;;;;2071736;28;20181;-55
2021/11/10 00:59:42;;;;;;;19.80;14.53;;;;;;;;;;2080392;28;20622;-52
2021/11/10 01:00:43;;;;;;;15.80;14.10;;;;;;;;;;2079507;28;20176;-51
2021/11/10 01:01:44;;;;;;;22.07;15.57;;;;;;;;;;2072912;28;20634;-55
2021/11/10 01:02:45;;;;;;;20.80;14.93;;;;;;;;;;2072705;28;20264;-53
2021/11/10 01:03:46;;;;;;;19.23;14.20;;;;;;;;;;2081080;28;20222;-51
2021/11/10 01:04:47;;;;;;;17.17;14.20;;;;;;;;;;2081107;28;20168;-52
2021/11/10 01:05:47;;;;;;;16.47;14.10;;;;;;;;;;2089064;28;20182;-55
2021/11/10 01:06:47;;;;;;;20.13;14.73;;;;;;;;;;2080361;28;20686;-53
2021/11/10 01:07:48;;;;;;;18.20;14.47;;;;;;;;;;2073035;28;20639;-56
2021/11/10 01:08:48;;;;;;;18.80;14.73;;;;;;;;;;2080435;28;20200;-55
2021/11/10 01:09:54;;;;;;;20.83;14.17;;;;;;;;;;2080323;28;20172;-53
2021/11/10 01:10:56;;;;;;;20.13;15.17;;;;;;;;;;2080953;28;20172;-52
2021/11/10 01:11:56;;;;;;;19.33;14.83;;;;;;;;;;2082502;28;20234;-52
2021/11/10 01:12:57;;;;;;;21.00;14.27;;;;;;;;;;2074481;28;20703;-53
2021/11/10 01:13:57;;;;;;;16.93;14.67;;;;;;;;;;2081560;28;20202;-52
2021/11/10 01:14:57;;;;;;;19.77;14.17;;;;;;;;;;2081745;28;20565;-51
2021/11/10 01:15:58;;;;;;;19.67;15.00;;;;;;;;;;2073468;28;20226;-53
2021/11/10 01:16:58;;;;;;;16.60;13.63;;;;;;;;;;2076459;28;20178;-52
2021/11/10 01:17:59;;;;;;;16.70;13.43;;;;;;;;;;2081697;28;20549;-54
2021/11/10 01:18:59;;;;;;;23.53;15.10;;;;;;;;;;2073007;28;20177;-52
2021/11/10 01:20:07;;;;;;;17.60;13.90;;;;;;;;;;2073979;28;20169;-55
2021/11/10 01:21:08;;;;;;;20.13;14.57;;;;;;;;;;2081742;28;20176;-52
2021/11/10 01:22:08;;;;;;;18.73;13.93;;;;;;;;;;2073617;28;20169;-55
2021/11/10 01:23:10;;;;;;;19.37;14.70;;;;;;;;;;2073136;28;20268;-53
2021/11/10 01:24:10;;;;;;;20.87;14.83;;;;;;;;;;2073395;28;20206;-53
2021/11/10 01:25:14;;;;;;;22.33;14.90;;;;;;;;;;2069567;28;20572;-53
2021/11/10 01:26:14;;;;;;;19.57;14.07;;;;;;;;;;2065163;28;20178;-52
2021/11/10 01:27:15;;;;;;;17.10;14.23;;;;;;;;;;2066262;28;20181;-53
2021/11/10 01:28:18;;;;;;;17.90;13.83;;;;;;;;;;2074399;28;20209;-52
2021/11/10 01:29:19;;;;;;;17.00;13.60;;;;;;;;;;2081883;28;20203;-55
2021/11/10 01:30:19;;;;;;;20.83;13.47;;;;;;;;;;2081244;28;20617;-55
2021/11/10 01:31:20;;;;;;;19.03;14.27;;;;;;;;;;2081188;28;20272;-54
2021/11/10 01:32:21;;;;;;;19.17;13.70;;;;;;;;;;2081227;28;20222;-54
2021/11/10 01:33:23;;;;;;;18.73;13.97;;;;;;;;;;2081129;28;20176;-52
2021/11/10 01:34:24;;;;;;;18.03;13.93;;;;;;;;;;2068113;28;20248;-53
2021/11/10 01:35:25;;;;;;;21.57;14.77;;;;;;;;;;2072511;28;20661;-54
2021/11/10 01:36:26;;;;;;;21.80;14.77;;;;;;;;;;2065468;28;20220;-53
2021/11/10 01:37:27;;;;;;;20.47;14.47;;;;;;;;;;2073926;28;20338;-53
2021/11/10 01:38:27;;;;;;;18.87;14.23;;;;;;;;;;2081633;28;20219;-52
2021/11/10 01:39:27;;;;;;;19.37;14.60;;;;;;;;;;2071436;28;20322;-56
2021/11/10 01:40:28;;;;;;;20.63;14.93;;;;;;;;;;2070086;28;20189;-52
2021/11/10 01:41:29;;;;;;;19.87;14.03;;;;;;;;;;2073642;28;20212;-52
2021/11/10 01:42:30;;;;;;;17.80;14.83;;;;;;;;;;2081679;28;20271;-53
2021/11/10 01:43:31;;;;;;;18.97;14.40;;;;;;;;;;2080110;28;20267;-53
2021/11/10 01:44:33;;;;;;;19.70;13.47;;;;;;;;;;2073554;28;20188;-55
2021/11/10 01:45:34;;;;;;;19.43;14.00;;;;;;;;;;2081780;28;20191;-52
2021/11/10 01:46:34;;;;;;;16.10;14.10;;;;;;;;;;2072645;28;20219;-52
2021/11/10 01:47:35;;;;;;;16.57;14.43;;;;;;;;;;2072770;28;20185;-55
2021/11/10 01:48:38;;;;;;;20.27;13.70;;;;;;;;;;2072636;28;20586;-53
2021/11/10 01:49:41;;;;;;;15.83;13.53;;;;;;;;;;2073045;28;20197;-52
2021/11/10 01:50:42;;;;;;;17.60;13.73;;;;;;;;;;2081312;28;20180;-56
2021/11/10 01:51:43;;;;;;;19.47;14.20;;;;;;;;;;2081455;28;20633;-53
2021/11/10 01:52:45;;;;;;;19.30;14.87;;;;;;;;;;2074015;28;20173;-52
2021/11/10 01:53:48;;;;;;;21.43;15.23;;;;;;;;;;2074209;28;20231;-53
2021/11/10 01:54:49;;;;;;;21.37;15.17;;;;;;;;;;2066942;28;20173;-53
2021/11/10 01:55:55;;;;;;;18.70;14.07;;;;;;;;;;2074405;28;20252;-53
2021/11/10 01:56:55;;;;;;;22.47;14.63;;;;;;;;;;2073384;28;20248;-55
2021/11/10 01:57:57;;;;;;;20.63;13.87;;;;;;;;;;2081611;28;20499;-53
2021/11/10 01:58:58;;;;;;;21.47;15.57;;;;;;;;;;2073088;28;20170;-53
2021/11/10 02:00:08;;;;;;;17.87;14.10;;;;;;;;;;2073054;28;20257;-54
2021/11/10 02:01:20;;;;;;;16.97;14.97;;;;;;;;;;2082125;28;20177;-52
2021/11/10 02:02:22;;;;;;;15.87;14.20;;;;;;;;;;2081805;28;20200;-55
2021/11/10 02:03:29;;;;;;;23.77;15.20;;;;;;;;;;2082493;28;20244;-52
2021/11/10 02:04:33;;;;;;;20.93;15.03;;;;;;;;;;2087544;28;20183;-55
2021/11/10 02:05:33;;;;;;;17.00;14.13;;;;;;;;;;2080687;28;20284;-53
2021/11/10 02:06:38;;;;;;;19.87;14.70;;;;;;;;;;2080971;28;20184;-53
2021/11/10 02:07:55;;;;;;;21.57;14.63;;;;;;;;;;2081912;28;20555;-54
2021/11/10 02:08:55;;;;;;;18.23;14.57;;;;;;;;;;2081907;28;20176;-52
2021/11/10 02:10:00;;;;;;;19.43;14.20;;;;;;;;;;2080524;28;20211;-53
2021/11/10 02:11:01;;;;;;;18.00;14.73;;;;;;;;;;2072024;28;20169;-52
2021/11/10 02:12:03;;;;;;;18.67;14.30;;;;;;;;;;2074786;28;20265;-54
2021/11/10 02:13:15;;;;;;;18.30;14.50;;;;;;;;;;2072284;28;20722;-52
2021/11/10 02:14:16;;;;;;;19.60;14.30;;;;;;;;;;2079324;28;20171;-53
2021/11/10 02:15:17;;;;;;;17.00;13.60;;;;;;;;;;2081505;28;20176;-56
2021/11/10 02:16:18;;;;;;;16.40;13.60;;;;;;;;;;2080428;28;20255;-55
2021/11/10 02:17:20;;;;;;;18.20;14.47;;;;;;;;;;2080888;28;20176;-50
2021/11/10 02:18:24;;;;;;;19.10;14.47;;;;;;;;;;2080415;28;20173;-52
2021/11/10 02:19:29;;;;;;;14.80;13.30;;;;;;;;;;2081080;28;20263;-52
2021/11/10 02:20:40;;;;;;;17.43;14.27;;;;;;;;;;2071590;28;20192;-52
2021/11/10 02:21:46;;;;;;;16.50;13.73;;;;;;;;;;2079888;28;20254;-54
2021/11/10 02:22:50;;;;;;;17.70;13.27;;;;;;;;;;2073476;28;20196;-55
2021/11/10 02:23:51;;;;;;;21.77;14.87;;;;;;;;;;2078469;28;20165;-53
2021/11/10 02:24:51;;;;;;;23.13;15.07;;;;;;;;;;2081461;28;20199;-52
2021/11/10 02:25:57;;;;;;;20.67;13.60;;;;;;;;;;2081290;28;20310;-51
2021/11/10 02:26:58;;;;;;;19.07;14.10;;;;;;;;;;2072457;28;20215;-52
2021/11/10 02:27:58;;;;;;;20.03;15.00;;;;;;;;;;2065189;28;20267;-52
2021/11/10 02:29:00;;;;;;;22.77;14.83;;;;;;;;;;2080527;28;20204;-54
2021/11/10 02:30:01;;;;;;;21.43;15.60;;;;;;;;;;2088724;28;20241;-53
2021/11/10 02:31:01;;;;;;;19.90;15.63;;;;;;;;;;2080521;28;20587;-55
2021/11/10 02:32:07;;;;;;;21.67;15.23;;;;;;;;;;2072505;28;20184;-54
2021/11/10 02:33:08;;;;;;;22.30;14.80;;;;;;;;;;2064295;28;20205;-53
2021/11/10 02:34:08;;;;;;;19.40;15.03;;;;;;;;;;2064873;28;20553;-53
2021/11/10 02:35:08;;;;;;;23.00;15.83;;;;;;;;;;2081299;28;20196;-52
2021/11/10 02:36:09;;;;;;;23.50;15.30;;;;;;;;;;2081496;28;20186;-52
2021/11/10 02:37:10;;;;;;;18.63;14.37;;;;;;;;;;2073090;28;20649;-52
2021/11/10 02:38:13;;;;;;;20.13;14.23;;;;;;;;;;2080709;28;20259;-52
2021/11/10 02:39:16;;;;;;;19.97;14.83;;;;;;;;;;2080438;28;20226;-54
2021/11/10 02:40:16;;;;;;;20.33;15.90;;;;;;;;;;2071986;28;20173;-52
2021/11/10 02:41:16;;;;;;;18.00;14.23;;;;;;;;;;2072537;28;20176;-53
2021/11/10 02:42:18;;;;;;;22.53;14.63;;;;;;;;;;2080238;28;20230;-56
2021/11/10 02:43:18;;;;;;;19.87;14.67;;;;;;;;;;2080335;28;20176;-55
2021/11/10 02:44:19;;;;;;;27.20;14.60;;;;;;;;;;2080422;28;20273;-56
2021/11/10 02:45:20;;;;;;;18.23;14.90;;;;;;;;;;2080800;28;20629;-52
2021/11/10 02:46:21;;;;;;;17.20;14.80;;;;;;;;;;2080244;28;20172;-52
2021/11/10 02:47:21;;;;;;;22.40;15.27;;;;;;;;;;2080971;28;20809;-52
2021/11/10 02:48:22;;;;;;;19.57;14.57;;;;;;;;;;2080874;28;20303;-52
2021/11/10 02:49:29;;;;;;;19.07;14.60;;;;;;;;;;2080720;28;20264;-53
2021/11/10 02:50:30;;;;;;;16.30;14.07;;;;;;;;;;2080835;28;20192;-54
2021/11/10 02:51:30;;;;;;;18.00;15.07;;;;;;;;;;2078247;28;20177;-52
2021/11/10 02:52:30;;;;;;;16.10;14.43;;;;;;;;;;2089545;28;20265;-54
2021/11/10 02:53:33;;;;;;;20.70;14.50;;;;;;;;;;2081158;28;20625;-51
2021/11/10 02:54:34;;;;;;;21.47;14.60;;;;;;;;;;2082665;28;20187;-52
2021/11/10 02:55:34;;;;;;;21.47;15.10;;;;;;;;;;2083388;28;20661;-53
2021/11/10 02:56:35;;;;;;;16.87;14.50;;;;;;;;;;2083077;28;20160;-53
2021/11/10 02:57:35;;;;;;;20.73;15.10;;;;;;;;;;2082752;28;20633;-53
2021/11/10 02:58:36;;;;;;;24.10;14.90;;;;;;;;;;2073491;28;20168;-52
2021/11/10 02:59:38;;;;;;;17.07;13.97;;;;;;;;;;2066899;28;20197;-52
2021/11/10 03:00:39;;;;;;;21.57;15.27;;;;;;;;;;2072327;28;20413;-51
2021/11/10 03:01:41;;;;;;;17.03;14.83;;;;;;;;;;2073931;28;20181;-52
2021/11/10 03:02:41;;;;;;;20.33;15.47;;;;;;;;;;2073499;28;20712;-52
2021/11/10 03:03:43;;;;;;;23.63;15.97;;;;;;;;;;2072775;28;20176;-52
2021/11/10 03:04:45;;;;;;;21.17;15.70;;;;;;;;;;2073740;28;20269;-52
2021/11/10 03:05:47;;;;;;;18.50;16.07;;;;;;;;;;2074001;28;20255;-51
2021/11/10 03:06:47;;;;;;;17.57;14.67;;;;;;;;;;2073810;28;20215;-53
2021/11/10 03:07:48;;;;;;;21.13;15.63;;;;;;;;;;2081473;28;20168;-56
2021/11/10 03:08:48;;;;;;;19.87;15.17;;;;;;;;;;2067957;28;20655;-56
2021/11/10 03:09:50;;;;;;;19.63;14.97;;;;;;;;;;2072659;28;20172;-53
2021/11/10 03:10:56;;;;;;;18.93;15.03;;;;;;;;;;2073895;28;20168;-53
2021/11/10 03:11:58;;;;;;;17.63;15.13;;;;;;;;;;2081415;28;20183;-52
2021/11/10 03:13:00;;;;;;;18.57;14.70;;;;;;;;;;2081444;28;20212;-53
2021/11/10 03:14:02;;;;;;;19.47;14.20;;;;;;;;;;2073056;28;20571;-51
2021/11/10 03:15:03;;;;;;;18.93;14.83;;;;;;;;;;2073004;28;20273;-53
2021/11/10 03:16:04;;;;;;;18.07;13.93;;;;;;;;;;2072218;28;20223;-54
2021/11/10 03:17:05;;;;;;;21.20;14.87;;;;;;;;;;2072543;28;20243;-53
2021/11/10 03:18:08;;;;;;;17.47;14.47;;;;;;;;;;2075299;28;20183;-52
2021/11/10 03:19:08;;;;;;;20.90;14.77;;;;;;;;;;2080238;28;20212;-53
2021/11/10 03:20:09;;;;;;;17.20;15.20;;;;;;;;;;2072156;28;20181;-54
2021/11/10 03:21:13;;;;;;;20.30;14.73;;;;;;;;;;2072658;28;20693;-52
2021/11/10 03:22:14;;;;;;;21.17;15.17;;;;;;;;;;2072187;28;20177;-52
2021/11/10 03:23:18;;;;;;;18.70;14.50;;;;;;;;;;2072435;28;20228;-51
2021/11/10 03:24:22;;;;;;;22.03;15.37;;;;;;;;;;2072333;28;20244;-51
2021/11/10 03:25:22;;;;;;;18.00;15.23;;;;;;;;;;2071869;28;20627;-55
2021/11/10 03:26:24;;;;;;;22.80;15.20;;;;;;;;;;2071821;28;20185;-53
2021/11/10 03:27:27;;;;;;;20.30;14.53;;;;;;;;;;2073057;28;20184;-53
2021/11/10 03:28:32;;;;;;;18.30;13.93;;;;;;;;;;2080714;28;20252;-53
2021/11/10 03:29:34;;;;;;;19.97;14.43;;;;;;;;;;2072887;28;20197;-52
2021/11/10 03:30:38;;;;;;;17.63;14.30;;;;;;;;;;2078738;28;20283;-51
2021/11/10 03:31:40;;;;;;;18.83;15.00;;;;;;;;;;2073228;28;20231;-52
2021/11/10 03:32:45;;;;;;;20.90;15.00;;;;;;;;;;2080870;28;20176;-53
2021/11/10 03:33:47;;;;;;;17.53;15.00;;;;;;;;;;2081061;28;20251;-55
2021/11/10 03:34:48;;;;;;;16.60;14.23;;;;;;;;;;2071003;28;20172;-53
2021/11/10 03:35:49;;;;;;;21.57;14.37;;;;;;;;;;2080645;28;20669;-52
2021/11/10 03:36:52;;;;;;;19.97;14.50;;;;;;;;;;2072529;28;20169;-53
2021/11/10 03:37:53;;;;;;;20.03;14.97;;;;;;;;;;2072564;28;20191;-55
2021/11/10 03:38:56;;;;;;;17.70;14.27;;;;;;;;;;2077547;28;20180;-52
2021/11/10 03:39:56;;;;;;;22.57;13.37;;;;;;;;;;2072911;28;20660;-54
2021/11/10 03:40:57;;;;;;;19.07;14.80;;;;;;;;;;2071265;28;20754;-53
2021/11/10 03:42:05;;;;;;;20.90;14.27;;;;;;;;;;2072813;28;20678;-54
2021/11/10 03:43:05;;;;;;;16.07;13.80;;;;;;;;;;2072620;28;20185;-55
2021/11/10 03:44:06;;;;;;;17.73;14.00;;;;;;;;;;2071992;28;20307;-53
2021/11/10 03:45:10;;;;;;;18.23;14.77;;;;;;;;;;2059435;28;20173;-52
2021/11/10 03:46:10;;;;;;;18.97;14.17;;;;;;;;;;2063728;28;20561;-54
2021/11/10 03:47:11;;;;;;;18.77;13.63;;;;;;;;;;2063912;28;20161;-52
2021/11/10 03:48:12;;;;;;;21.57;15.00;;;;;;;;;;2078906;28;20208;-53
2021/11/10 03:49:15;;;;;;;19.40;15.20;;;;;;;;;;2080064;28;20195;-52
2021/11/10 03:50:17;;;;;;;20.13;14.13;;;;;;;;;;2071405;28;20204;-52
2021/11/10 03:51:17;;;;;;;21.20;14.57;;;;;;;;;;2072188;28;20179;-52
2021/11/10 03:52:19;;;;;;;20.67;14.27;;;;;;;;;;2071987;28;20542;-52
2021/11/10 03:53:20;;;;;;;17.37;13.77;;;;;;;;;;2063927;28;20209;-59
2021/11/10 03:54:20;;;;;;;17.90;14.27;;;;;;;;;;2060238;28;20177;-53
2021/11/10 03:55:21;;;;;;;19.30;15.30;;;;;;;;;;2080648;28;20255;-53
2021/11/10 03:56:22;;;;;;;16.07;14.00;;;;;;;;;;2080687;28;20168;-52
2021/11/10 03:57:23;;;;;;;20.13;15.17;;;;;;;;;;2080900;28;20690;-53
2021/11/10 03:58:23;;;;;;;21.20;14.53;;;;;;;;;;2081346;28;20184;-54
2021/11/10 03:59:27;;;;;;;22.03;15.73;;;;;;;;;;2075939;28;20204;-55
2021/11/10 04:00:28;;;;;;;18.57;14.53;;;;;;;;;;2077278;28;20184;-56
2021/11/10 04:01:31;;;;;;;21.47;14.17;;;;;;;;;;2080487;28;20211;-52
2021/11/10 04:02:33;;;;;;;18.03;14.80;;;;;;;;;;2072440;28;20259;-56
2021/11/10 04:03:34;;;;;;;17.63;14.60;;;;;;;;;;2072880;28;20558;-52
2021/11/10 04:04:36;;;;;;;21.20;14.40;;;;;;;;;;2071272;28;20280;-52
2021/11/10 04:05:37;;;;;;;21.37;14.40;;;;;;;;;;2078623;28;20175;-54
2021/11/10 04:06:37;;;;;;;21.67;15.13;;;;;;;;;;2072302;28;20199;-55
2021/11/10 04:07:37;;;;;;;21.13;15.00;;;;;;;;;;2072368;28;20180;-53
2021/11/10 04:08:38;;;;;;;22.77;15.40;;;;;;;;;;2068605;28;20213;-54
2021/11/10 04:09:39;;;;;;;19.87;14.60;;;;;;;;;;2070916;28;20628;-54
2021/11/10 04:10:43;;;;;;;17.97;14.13;;;;;;;;;;2071181;28;20740;-52
2021/11/10 04:11:45;;;;;;;22.30;14.33;;;;;;;;;;2080792;28;20559;-54
2021/11/10 04:12:48;;;;;;;22.57;16.20;;;;;;;;;;2071786;28;20172;-54
2021/11/10 04:13:48;;;;;;;27.50;19.00;;;;;;;;;;2071425;28;20248;-54
2021/11/10 04:14:49;;;;;;;27.80;18.30;;;;;;;;;;2071900;28;20718;-53
2021/11/10 04:15:49;;;;;;;24.97;17.03;;;;;;;;;;2079964;28;20267;-52
2021/11/10 04:16:49;;;;;;;24.37;17.70;;;;;;;;;;2080063;28;20638;-52
2021/11/10 04:17:50;;;;;;;22.30;15.70;;;;;;;;;;2080741;28;20672;-52
2021/11/10 04:18:52;;;;;;;21.53;14.30;;;;;;;;;;2080656;28;20254;-52
2021/11/10 04:19:55;;;;;;;21.10;15.13;;;;;;;;;;2071649;28;20172;-52
2021/11/10 04:20:55;;;;;;;17.43;13.83;;;;;;;;;;2071263;28;20192;-52
2021/11/10 04:21:56;;;;;;;16.57;14.23;;;;;;;;;;2080184;28;20168;-52
2021/11/10 04:22:57;;;;;;;22.43;15.93;;;;;;;;;;2080384;28;20327;-52
2021/11/10 04:23:58;;;;;;;18.03;15.00;;;;;;;;;;2080046;28;20168;-53
2021/11/10 04:25:00;;;;;;;20.37;14.67;;;;;;;;;;2079982;28;20767;-51
2021/11/10 04:26:03;;;;;;;17.00;14.03;;;;;;;;;;2063821;28;20209;-54
2021/11/10 04:27:04;;;;;;;28.87;18.43;;;;;;;;;;2063943;28;20181;-56
2021/11/10 04:28:05;;;;;;;29.17;19.90;;;;;;;;;;2071798;28;20205;-51
2021/11/10 04:29:07;;;;;;;29.20;19.20;;;;;;;;;;2068337;28;20204;-53
2021/11/10 04:30:08;;;;;;;24.07;15.47;;;;;;;;;;2072101;28;20298;-50
2021/11/10 04:31:10;;;;;;;20.23;15.80;;;;;;;;;;2079760;28;20164;-51
2021/11/10 04:32:13;;;;;;;31.73;19.40;;;;;;;;;;2080693;28;20164;-54
2021/11/10 04:33:15;;;;;;;28.63;18.77;;;;;;;;;;2072102;28;20200;-51
2021/11/10 04:34:17;;;;;;;29.53;17.70;;;;;;;;;;2072042;28;20653;-50
2021/11/10 04:35:22;;;;;;;21.73;16.43;;;;;;;;;;2080713;28;20999;-52
2021/11/10 04:36:28;;;;;;;29.67;20.37;;;;;;;;;;2072823;28;20173;-51
2021/11/10 04:37:30;;;;;;;47.57;30.53;;;;;;;;;;2072691;28;20176;-52
2021/11/10 04:38:32;;;;;;;24.87;18.03;;;;;;;;;;2072927;28;20173;-51
2021/11/10 04:39:33;;;;;;;21.83;16.47;;;;;;;;;;2066827;28;20725;-53
2021/11/10 04:40:33;;;;;;;18.30;14.90;;;;;;;;;;2078232;28;20875;-52
2021/11/10 04:41:34;;;;;;;19.70;14.43;;;;;;;;;;2080837;28;20191;-52
2021/11/10 04:42:36;;;;;;;21.97;16.20;;;;;;;;;;2072456;28;20574;-50
2021/11/10 04:43:37;;;;;;;24.00;16.23;;;;;;;;;;2071636;28;20181;-54
2021/11/10 04:44:37;;;;;;;20.17;15.30;;;;;;;;;;2071648;28;21503;-55
2021/11/10 04:45:39;;;;;;;22.70;15.40;;;;;;;;;;2071564;28;20192;-58
2021/11/10 04:46:39;;;;;;;21.53;15.60;;;;;;;;;;2072614;28;20295;-55
2021/11/10 04:47:39;;;;;;;20.80;14.47;;;;;;;;;;2085906;23;20649;-63
2021/11/10 04:48:40;;;;;;;20.23;14.57;;;;;;;;;;2069566;28;20180;-58
2021/11/10 04:49:41;;;;;;;17.80;13.63;;;;;;;;;;2072857;28;20189;-60
2021/11/10 04:50:46;;;;;;;19.37;14.90;;;;;;;;;;2073596;28;20216;-60
2021/11/10 04:51:46;;;;;;;21.43;14.57;;;;;;;;;;2073149;28;20200;-63
2021/11/10 04:52:49;;;;;;;19.33;14.57;;;;;;;;;;2073605;28;20665;-60
2021/11/10 04:53:49;;;;;;;20.30;14.03;;;;;;;;;;2073815;28;20162;-63
2021/11/10 04:54:50;;;;;;;18.97;14.73;;;;;;;;;;2073672;28;20189;-64
2021/11/10 04:55:50;;;;;;;19.50;14.17;;;;;;;;;;2069663;28;20185;-63
2021/11/10 04:56:53;;;;;;;23.80;15.47;;;;;;;;;;2065067;28;20185;-64
2021/11/10 04:57:53;;;;;;;24.40;16.03;;;;;;;;;;2064605;28;20237;-62
2021/11/10 04:58:54;;;;;;;20.80;15.43;;;;;;;;;;2073034;28;20249;-63
2021/11/10 04:59:54;;;;;;;18.17;14.70;;;;;;;;;;2073752;28;20207;-61
2021/11/10 05:00:55;;;;;;;20.37;15.33;;;;;;;;;;2065615;28;20213;-61
2021/11/10 05:03:14;;;;;;;23.97;15.33;;;;;;;;;;2067779;28;20651;-62
2021/11/10 05:04:15;;;;;;;20.57;14.50;;;;;;;;;;2072105;28;20197;-58
2021/11/10 05:05:17;;;;;;;20.73;14.40;;;;;;;;;;2066390;28;20169;-62
2021/11/10 05:06:19;;;;;;;22.33;14.57;;;;;;;;;;2067872;28;20245;-64
2021/11/10 05:07:20;;;;;;;19.57;15.03;;;;;;;;;;2076196;28;20169;-62
2021/11/10 05:08:21;;;;;;;21.80;15.97;;;;;;;;;;2074239;28;20194;-63
2021/11/10 05:09:21;;;;;;;19.63;14.70;;;;;;;;;;2074637;28;20255;-64
2021/11/10 05:10:22;;;;;;;18.53;15.23;;;;;;;;;;2070336;28;20197;-64
2021/11/10 05:11:29;;;;;;;22.93;15.90;;;;;;;;;;2075368;28;20200;-63
2021/11/10 05:12:29;;;;;;;19.33;16.20;;;;;;;;;;2074146;28;20192;-64
2021/11/10 05:13:31;;;;;;;18.60;14.90;;;;;;;;;;2074379;28;20173;-66
2021/11/10 05:14:31;;;;;;;21.77;15.57;;;;;;;;;;2074664;28;20185;-65
2021/11/10 05:15:33;;;;;;;25.20;16.43;;;;;;;;;;2070549;28;20229;-63
2021/11/10 05:16:37;;;;;;;21.83;14.63;;;;;;;;;;2076935;28;20162;-65
2021/11/10 05:17:42;;;;;;;19.43;15.20;;;;;;;;;;2075184;28;20218;-67
2021/11/10 05:18:46;;;;;;;22.87;14.07;;;;;;;;;;2068156;28;20221;-65
2021/11/10 05:19:50;;;;;;;16.93;13.63;;;;;;;;;;2075461;28;20176;-65
2021/11/10 05:20:51;;;;;;;20.13;14.67;;;;;;;;;;2080844;28;20188;-63
2021/11/10 05:21:51;;;;;;;19.40;14.30;;;;;;;;;;2074490;28;20166;-67
2021/11/10 05:22:52;;;;;;;19.17;13.63;;;;;;;;;;2082847;28;20189;-60
2021/11/10 05:23:52;;;;;;;20.93;14.63;;;;;;;;;;2082603;28;20184;-60
2021/11/10 05:24:52;;;;;;;17.63;13.60;;;;;;;;;;2081727;28;20173;-62
2021/11/10 05:25:53;;;;;;;23.10;15.37;;;;;;;;;;2078634;28;20160;-62
2021/11/10 05:26:54;;;;;;;21.00;13.43;;;;;;;;;;2078982;28;20177;-64
2021/11/10 05:27:54;;;;;;;18.43;14.27;;;;;;;;;;2078698;28;20177;-62
2021/11/10 05:28:54;;;;;;;17.97;14.33;;;;;;;;;;2070406;28;20210;-64
2021/11/10 05:29:54;;;;;;;22.60;14.37;;;;;;;;;;2070904;28;20292;-62
2021/11/10 05:30:55;;;;;;;20.20;14.47;;;;;;;;;;2079762;28;20188;-63
2021/11/10 05:31:55;;;;;;;22.30;15.03;;;;;;;;;;2079387;28;20188;-64
2021/11/10 05:32:56;;;;;;;22.10;14.57;;;;;;;;;;2079592;28;20187;-64
2021/11/10 05:33:56;;;;;;;23.93;15.53;;;;;;;;;;2079896;28;20165;-65
2021/11/10 05:34:58;;;;;;;17.93;14.53;;;;;;;;;;2079883;28;20188;-65
2021/11/10 05:35:59;;;;;;;19.83;15.07;;;;;;;;;;2079080;28;20212;-64
2021/11/10 05:36:59;;;;;;;20.83;14.20;;;;;;;;;;2078207;28;20173;-64
2021/11/10 05:37:59;;;;;;;17.57;14.33;;;;;;;;;;2082087;28;20203;-63
2021/11/10 05:38:59;;;;;;;20.03;14.63;;;;;;;;;;2081022;28;20176;-62
2021/11/10 05:40:00;;;;;;;20.20;14.67;;;;;;;;;;2080771;28;20181;-63
2021/11/10 05:41:00;;;;;;;19.43;14.67;;;;;;;;;;2080666;28;20197;-66
2021/11/10 05:42:01;;;;;;;19.90;14.57;;;;;;;;;;2082121;28;20165;-66
2021/11/10 05:43:01;;;;;;;19.47;13.30;;;;;;;;;;2082721;28;20203;-64
2021/11/10 05:44:01;;;;;;;20.10;14.37;;;;;;;;;;2082836;28;20200;-67
2021/11/10 05:45:02;;;;;;;17.30;14.03;;;;;;;;;;2077745;28;20185;-63
2021/11/10 05:46:04;;;;;;;18.53;13.37;;;;;;;;;;2078666;28;20183;-67
2021/11/10 05:47:04;;;;;;;21.20;14.30;;;;;;;;;;2078285;28;20204;-62
2021/11/10 05:48:04;;;;;;;20.37;14.87;;;;;;;;;;2077769;28;20213;-62
2021/11/10 05:49:05;;;;;;;22.20;14.13;;;;;;;;;;2076190;28;20197;-63
2021/11/10 05:50:06;;;;;;;19.53;15.40;;;;;;;;;;2077243;28;20704;-64
2021/11/10 05:51:06;;;;;;;17.10;14.37;;;;;;;;;;2076868;28;20177;-63
2021/11/10 05:52:07;;;;;;;22.83;15.30;;;;;;;;;;2077607;28;20414;-63
2021/11/10 05:53:07;;;;;;;19.90;15.00;;;;;;;;;;2078068;28;20196;-64
2021/11/10 05:54:08;;;;;;;17.50;13.80;;;;;;;;;;2079254;28;20216;-63
2021/11/10 05:55:08;;;;;;;17.80;13.00;;;;;;;;;;2079652;28;20161;-64
2021/11/10 05:56:16;;;;;;;21.00;13.37;;;;;;;;;;2080087;28;20187;-60
2021/11/10 05:57:17;;;;;;;18.10;13.60;;;;;;;;;;2078267;28;20161;-63
2021/11/10 05:58:18;;;;;;;17.83;13.67;;;;;;;;;;2078798;28;20228;-63